<?xml version="1.0" encoding="UTF-8" standalone="no" ?>
<gpx xmlns="http://www.topografix.com/GPX/1/1" xmlns:xsi="http://www.w3.org/2001/XMLSchema-instance" xsi:schemaLocation="http://www.topografix.com/GPX/1/1 http://www.topografix.com/GPX/1/1/gpx.xsd" version="1.1" creator="VisuGPX - https://www.visugpx.com">
  <metadata>
    <name>2022-02-17-46-bach</name>
    <desc><![CDATA[Randonnée de 12km sans difficulté. de beaux chemins vous emmèneront vers les gariottes et abris de bergers ainsi qu'au lavoir]]></desc>
  </metadata>
  <trk>
    <name><![CDATA[14264977-bach 12kms par Sindou]]></name>
    <trkseg>
      <trkpt lat="44.35022" lon="1.67074">
        <ele>318</ele>
        <time>2022-02-14T09:50:14Z</time>
      </trkpt>
      <trkpt lat="44.35025" lon="1.67072">
        <ele>318</ele>
        <time>2022-02-14T09:50:18Z</time>
      </trkpt>
      <trkpt lat="44.35023" lon="1.67074">
        <ele>318</ele>
        <time>2022-02-14T09:50:22Z</time>
      </trkpt>
      <trkpt lat="44.35023" lon="1.67085">
        <ele>319</ele>
        <time>2022-02-14T09:50:32Z</time>
      </trkpt>
      <trkpt lat="44.35021" lon="1.67086">
        <ele>319</ele>
        <time>2022-02-14T09:50:35Z</time>
      </trkpt>
      <trkpt lat="44.35024" lon="1.67086">
        <ele>319</ele>
        <time>2022-02-14T09:50:39Z</time>
      </trkpt>
      <trkpt lat="44.35026" lon="1.67089">
        <ele>319</ele>
        <time>2022-02-14T09:50:43Z</time>
      </trkpt>
      <trkpt lat="44.35027" lon="1.6707">
        <ele>318</ele>
        <time>2022-02-14T09:51:01Z</time>
      </trkpt>
      <trkpt lat="44.35025" lon="1.67068">
        <ele>318</ele>
        <time>2022-02-14T09:51:04Z</time>
      </trkpt>
      <trkpt lat="44.35041" lon="1.67029">
        <ele>317</ele>
        <time>2022-02-14T09:51:47Z</time>
      </trkpt>
      <trkpt lat="44.3506" lon="1.66954">
        <ele>316</ele>
        <time>2022-02-14T09:53:03Z</time>
      </trkpt>
      <trkpt lat="44.35077" lon="1.66858">
        <ele>315</ele>
        <time>2022-02-14T09:54:38Z</time>
      </trkpt>
      <trkpt lat="44.35067" lon="1.66838">
        <ele>315</ele>
        <time>2022-02-14T09:55:01Z</time>
      </trkpt>
      <trkpt lat="44.35049" lon="1.66822">
        <ele>315</ele>
        <time>2022-02-14T09:55:29Z</time>
      </trkpt>
      <trkpt lat="44.35059" lon="1.66759">
        <ele>313</ele>
        <time>2022-02-14T09:56:31Z</time>
      </trkpt>
      <trkpt lat="44.35067" lon="1.66727">
        <ele>313</ele>
        <time>2022-02-14T09:57:03Z</time>
      </trkpt>
      <trkpt lat="44.35067" lon="1.66691">
        <ele>312</ele>
        <time>2022-02-14T09:57:38Z</time>
      </trkpt>
      <trkpt lat="44.3506" lon="1.66633">
        <ele>311</ele>
        <time>2022-02-14T09:58:34Z</time>
      </trkpt>
      <trkpt lat="44.3506" lon="1.66614">
        <ele>311</ele>
        <time>2022-02-14T09:58:52Z</time>
      </trkpt>
      <trkpt lat="44.35071" lon="1.66581">
        <ele>310</ele>
        <time>2022-02-14T09:59:27Z</time>
      </trkpt>
      <trkpt lat="44.35112" lon="1.66493">
        <ele>309</ele>
        <time>2022-02-14T10:01:07Z</time>
      </trkpt>
      <trkpt lat="44.35135" lon="1.6641">
        <ele>310</ele>
        <time>2022-02-14T10:02:32Z</time>
      </trkpt>
      <trkpt lat="44.35138" lon="1.66378">
        <ele>309</ele>
        <time>2022-02-14T10:03:03Z</time>
      </trkpt>
      <trkpt lat="44.35134" lon="1.66315">
        <ele>308</ele>
        <time>2022-02-14T10:04:03Z</time>
      </trkpt>
      <trkpt lat="44.35135" lon="1.6628">
        <ele>308</ele>
        <time>2022-02-14T10:04:36Z</time>
      </trkpt>
      <trkpt lat="44.35148" lon="1.66265">
        <ele>307</ele>
        <time>2022-02-14T10:04:59Z</time>
      </trkpt>
      <trkpt lat="44.35171" lon="1.66258">
        <ele>306</ele>
        <time>2022-02-14T10:05:30Z</time>
      </trkpt>
      <trkpt lat="44.35216" lon="1.66239">
        <ele>305</ele>
        <time>2022-02-14T10:06:33Z</time>
      </trkpt>
      <trkpt lat="44.35242" lon="1.66231">
        <ele>304</ele>
        <time>2022-02-14T10:07:09Z</time>
      </trkpt>
      <trkpt lat="44.35288" lon="1.66222">
        <ele>304</ele>
        <time>2022-02-14T10:08:11Z</time>
      </trkpt>
      <trkpt lat="44.35333" lon="1.66224">
        <ele>305</ele>
        <time>2022-02-14T10:09:11Z</time>
      </trkpt>
      <trkpt lat="44.35424" lon="1.66234">
        <ele>305</ele>
        <time>2022-02-14T10:11:12Z</time>
      </trkpt>
      <trkpt lat="44.35446" lon="1.66241">
        <ele>304</ele>
        <time>2022-02-14T10:11:43Z</time>
      </trkpt>
      <trkpt lat="44.35447" lon="1.66244">
        <ele>304</ele>
        <time>2022-02-14T10:11:46Z</time>
      </trkpt>
      <trkpt lat="44.3545" lon="1.66241">
        <ele>304</ele>
        <time>2022-02-14T10:11:51Z</time>
      </trkpt>
      <trkpt lat="44.35458" lon="1.6625">
        <ele>304</ele>
        <time>2022-02-14T10:12:04Z</time>
      </trkpt>
      <trkpt lat="44.35502" lon="1.66282">
        <ele>303</ele>
        <time>2022-02-14T10:13:11Z</time>
      </trkpt>
      <trkpt lat="44.35554" lon="1.6634">
        <ele>300</ele>
        <time>2022-02-14T10:14:39Z</time>
      </trkpt>
      <trkpt lat="44.35572" lon="1.66356">
        <ele>300</ele>
        <time>2022-02-14T10:15:08Z</time>
      </trkpt>
      <trkpt lat="44.35635" lon="1.6643">
        <ele>301</ele>
        <time>2022-02-14T10:16:58Z</time>
      </trkpt>
      <trkpt lat="44.3567" lon="1.66462">
        <ele>302</ele>
        <time>2022-02-14T10:17:53Z</time>
      </trkpt>
      <trkpt lat="44.35724" lon="1.66522">
        <ele>304</ele>
        <time>2022-02-14T10:19:25Z</time>
      </trkpt>
      <trkpt lat="44.35767" lon="1.66565">
        <ele>303</ele>
        <time>2022-02-14T10:20:36Z</time>
      </trkpt>
      <trkpt lat="44.35821" lon="1.66644">
        <ele>302</ele>
        <time>2022-02-14T10:22:20Z</time>
      </trkpt>
      <trkpt lat="44.35851" lon="1.66709">
        <ele>301</ele>
        <time>2022-02-14T10:23:34Z</time>
      </trkpt>
      <trkpt lat="44.3588" lon="1.66754">
        <ele>300</ele>
        <time>2022-02-14T10:24:32Z</time>
      </trkpt>
      <trkpt lat="44.35923" lon="1.66831">
        <ele>300</ele>
        <time>2022-02-14T10:26:05Z</time>
      </trkpt>
      <trkpt lat="44.35949" lon="1.66869">
        <ele>300</ele>
        <time>2022-02-14T10:26:55Z</time>
      </trkpt>
      <trkpt lat="44.35948" lon="1.66872">
        <ele>300</ele>
        <time>2022-02-14T10:26:58Z</time>
      </trkpt>
      <trkpt lat="44.35957" lon="1.66901">
        <ele>300</ele>
        <time>2022-02-14T10:27:29Z</time>
      </trkpt>
      <trkpt lat="44.35968" lon="1.66912">
        <ele>301</ele>
        <time>2022-02-14T10:27:47Z</time>
      </trkpt>
      <trkpt lat="44.36025" lon="1.66933">
        <ele>300</ele>
        <time>2022-02-14T10:29:05Z</time>
      </trkpt>
      <trkpt lat="44.36027" lon="1.66936">
        <ele>300</ele>
        <time>2022-02-14T10:29:09Z</time>
      </trkpt>
      <trkpt lat="44.36036" lon="1.66965">
        <ele>299</ele>
        <time>2022-02-14T10:29:39Z</time>
      </trkpt>
      <trkpt lat="44.36032" lon="1.6707">
        <ele>300</ele>
        <time>2022-02-14T10:31:20Z</time>
      </trkpt>
      <trkpt lat="44.36039" lon="1.67115">
        <ele>299</ele>
        <time>2022-02-14T10:32:04Z</time>
      </trkpt>
      <trkpt lat="44.36072" lon="1.67188">
        <ele>297</ele>
        <time>2022-02-14T10:33:26Z</time>
      </trkpt>
      <trkpt lat="44.36098" lon="1.67271">
        <ele>292</ele>
        <time>2022-02-14T10:34:52Z</time>
      </trkpt>
      <trkpt lat="44.3611" lon="1.67296">
        <ele>290</ele>
        <time>2022-02-14T10:35:21Z</time>
      </trkpt>
      <trkpt lat="44.36126" lon="1.67348">
        <ele>288</ele>
        <time>2022-02-14T10:36:15Z</time>
      </trkpt>
      <trkpt lat="44.36135" lon="1.67369">
        <ele>288</ele>
        <time>2022-02-14T10:36:39Z</time>
      </trkpt>
      <trkpt lat="44.36159" lon="1.67381">
        <ele>287</ele>
        <time>2022-02-14T10:37:13Z</time>
      </trkpt>
      <trkpt lat="44.36175" lon="1.67392">
        <ele>286</ele>
        <time>2022-02-14T10:37:36Z</time>
      </trkpt>
      <trkpt lat="44.36187" lon="1.67405">
        <ele>285</ele>
        <time>2022-02-14T10:37:57Z</time>
      </trkpt>
      <trkpt lat="44.36186" lon="1.67422">
        <ele>285</ele>
        <time>2022-02-14T10:38:13Z</time>
      </trkpt>
      <trkpt lat="44.36166" lon="1.67461">
        <ele>287</ele>
        <time>2022-02-14T10:38:59Z</time>
      </trkpt>
      <trkpt lat="44.36159" lon="1.67471">
        <ele>287</ele>
        <time>2022-02-14T10:39:12Z</time>
      </trkpt>
      <trkpt lat="44.36126" lon="1.67503">
        <ele>289</ele>
        <time>2022-02-14T10:40:06Z</time>
      </trkpt>
      <trkpt lat="44.36093" lon="1.67533">
        <ele>290</ele>
        <time>2022-02-14T10:40:58Z</time>
      </trkpt>
      <trkpt lat="44.36037" lon="1.67576">
        <ele>292</ele>
        <time>2022-02-14T10:42:23Z</time>
      </trkpt>
      <trkpt lat="44.35964" lon="1.67617">
        <ele>294</ele>
        <time>2022-02-14T10:44:08Z</time>
      </trkpt>
      <trkpt lat="44.35958" lon="1.67617">
        <ele>294</ele>
        <time>2022-02-14T10:44:16Z</time>
      </trkpt>
      <trkpt lat="44.35957" lon="1.67623">
        <ele>295</ele>
        <time>2022-02-14T10:44:22Z</time>
      </trkpt>
      <trkpt lat="44.35952" lon="1.67629">
        <ele>295</ele>
        <time>2022-02-14T10:44:31Z</time>
      </trkpt>
      <trkpt lat="44.35928" lon="1.67644">
        <ele>296</ele>
        <time>2022-02-14T10:45:06Z</time>
      </trkpt>
      <trkpt lat="44.35871" lon="1.67686">
        <ele>298</ele>
        <time>2022-02-14T10:46:32Z</time>
      </trkpt>
      <trkpt lat="44.35813" lon="1.67741">
        <ele>301</ele>
        <time>2022-02-14T10:48:06Z</time>
      </trkpt>
      <trkpt lat="44.35785" lon="1.67776">
        <ele>302</ele>
        <time>2022-02-14T10:48:56Z</time>
      </trkpt>
      <trkpt lat="44.35784" lon="1.67781">
        <ele>302</ele>
        <time>2022-02-14T10:49:01Z</time>
      </trkpt>
      <trkpt lat="44.35786" lon="1.67786">
        <ele>302</ele>
        <time>2022-02-14T10:49:06Z</time>
      </trkpt>
      <trkpt lat="44.35829" lon="1.67837">
        <ele>302</ele>
        <time>2022-02-14T10:50:21Z</time>
      </trkpt>
      <trkpt lat="44.35849" lon="1.67866">
        <ele>302</ele>
        <time>2022-02-14T10:51:00Z</time>
      </trkpt>
      <trkpt lat="44.35882" lon="1.67898">
        <ele>301</ele>
        <time>2022-02-14T10:51:53Z</time>
      </trkpt>
      <trkpt lat="44.35875" lon="1.67888">
        <ele>302</ele>
        <time>2022-02-14T10:52:07Z</time>
      </trkpt>
      <trkpt lat="44.35925" lon="1.67942">
        <ele>300</ele>
        <time>2022-02-14T10:53:31Z</time>
      </trkpt>
      <trkpt lat="44.36" lon="1.68029">
        <ele>296</ele>
        <time>2022-02-14T10:55:41Z</time>
      </trkpt>
      <trkpt lat="44.36033" lon="1.68063">
        <ele>295</ele>
        <time>2022-02-14T10:56:36Z</time>
      </trkpt>
      <trkpt lat="44.36065" lon="1.68103">
        <ele>296</ele>
        <time>2022-02-14T10:57:33Z</time>
      </trkpt>
      <trkpt lat="44.36105" lon="1.68137">
        <ele>297</ele>
        <time>2022-02-14T10:58:35Z</time>
      </trkpt>
      <trkpt lat="44.36121" lon="1.68154">
        <ele>297</ele>
        <time>2022-02-14T10:59:02Z</time>
      </trkpt>
      <trkpt lat="44.36162" lon="1.6819">
        <ele>297</ele>
        <time>2022-02-14T11:00:07Z</time>
      </trkpt>
      <trkpt lat="44.36176" lon="1.68206">
        <ele>298</ele>
        <time>2022-02-14T11:00:31Z</time>
      </trkpt>
      <trkpt lat="44.36179" lon="1.68204">
        <ele>298</ele>
        <time>2022-02-14T11:00:35Z</time>
      </trkpt>
      <trkpt lat="44.36177" lon="1.68203">
        <ele>298</ele>
        <time>2022-02-14T11:00:38Z</time>
      </trkpt>
      <trkpt lat="44.36174" lon="1.68207">
        <ele>298</ele>
        <time>2022-02-14T11:00:44Z</time>
      </trkpt>
      <trkpt lat="44.3618" lon="1.68206">
        <ele>298</ele>
        <time>2022-02-14T11:00:52Z</time>
      </trkpt>
      <trkpt lat="44.36174" lon="1.68206">
        <ele>298</ele>
        <time>2022-02-14T11:01:00Z</time>
      </trkpt>
      <trkpt lat="44.36179" lon="1.68208">
        <ele>298</ele>
        <time>2022-02-14T11:01:07Z</time>
      </trkpt>
      <trkpt lat="44.36175" lon="1.68208">
        <ele>298</ele>
        <time>2022-02-14T11:01:12Z</time>
      </trkpt>
      <trkpt lat="44.36177" lon="1.6821">
        <ele>298</ele>
        <time>2022-02-14T11:01:15Z</time>
      </trkpt>
      <trkpt lat="44.36175" lon="1.68211">
        <ele>298</ele>
        <time>2022-02-14T11:01:18Z</time>
      </trkpt>
      <trkpt lat="44.36173" lon="1.68203">
        <ele>298</ele>
        <time>2022-02-14T11:01:26Z</time>
      </trkpt>
      <trkpt lat="44.36174" lon="1.68206">
        <ele>298</ele>
        <time>2022-02-14T11:01:30Z</time>
      </trkpt>
      <trkpt lat="44.36177" lon="1.68205">
        <ele>298</ele>
        <time>2022-02-14T11:01:34Z</time>
      </trkpt>
      <trkpt lat="44.36173" lon="1.68205">
        <ele>298</ele>
        <time>2022-02-14T11:01:39Z</time>
      </trkpt>
      <trkpt lat="44.36175" lon="1.68207">
        <ele>298</ele>
        <time>2022-02-14T11:01:42Z</time>
      </trkpt>
      <trkpt lat="44.36176" lon="1.68205">
        <ele>298</ele>
        <time>2022-02-14T11:01:45Z</time>
      </trkpt>
      <trkpt lat="44.36178" lon="1.68206">
        <ele>298</ele>
        <time>2022-02-14T11:01:47Z</time>
      </trkpt>
      <trkpt lat="44.36175" lon="1.68213">
        <ele>298</ele>
        <time>2022-02-14T11:01:55Z</time>
      </trkpt>
      <trkpt lat="44.36172" lon="1.68216">
        <ele>298</ele>
        <time>2022-02-14T11:02:00Z</time>
      </trkpt>
      <trkpt lat="44.36172" lon="1.68213">
        <ele>298</ele>
        <time>2022-02-14T11:02:03Z</time>
      </trkpt>
      <trkpt lat="44.36168" lon="1.68213">
        <ele>298</ele>
        <time>2022-02-14T11:02:08Z</time>
      </trkpt>
      <trkpt lat="44.36168" lon="1.6821">
        <ele>298</ele>
        <time>2022-02-14T11:02:11Z</time>
      </trkpt>
      <trkpt lat="44.36168" lon="1.68212">
        <ele>298</ele>
        <time>2022-02-14T11:02:13Z</time>
      </trkpt>
      <trkpt lat="44.36176" lon="1.68213">
        <ele>298</ele>
        <time>2022-02-14T11:02:24Z</time>
      </trkpt>
      <trkpt lat="44.36175" lon="1.68215">
        <ele>298</ele>
        <time>2022-02-14T11:02:26Z</time>
      </trkpt>
      <trkpt lat="44.36151" lon="1.68237">
        <ele>300</ele>
        <time>2022-02-14T11:03:04Z</time>
      </trkpt>
      <trkpt lat="44.36118" lon="1.68274">
        <ele>301</ele>
        <time>2022-02-14T11:04:01Z</time>
      </trkpt>
      <trkpt lat="44.36055" lon="1.68352">
        <ele>305</ele>
        <time>2022-02-14T11:05:53Z</time>
      </trkpt>
      <trkpt lat="44.35994" lon="1.68412">
        <ele>309</ele>
        <time>2022-02-14T11:07:33Z</time>
      </trkpt>
      <trkpt lat="44.35955" lon="1.68455">
        <ele>308</ele>
        <time>2022-02-14T11:08:39Z</time>
      </trkpt>
      <trkpt lat="44.35894" lon="1.68514">
        <ele>309</ele>
        <time>2022-02-14T11:10:18Z</time>
      </trkpt>
      <trkpt lat="44.35826" lon="1.6857">
        <ele>311</ele>
        <time>2022-02-14T11:12:03Z</time>
      </trkpt>
      <trkpt lat="44.35782" lon="1.68616">
        <ele>312</ele>
        <time>2022-02-14T11:13:17Z</time>
      </trkpt>
      <trkpt lat="44.35732" lon="1.68655">
        <ele>313</ele>
        <time>2022-02-14T11:14:33Z</time>
      </trkpt>
      <trkpt lat="44.35707" lon="1.68685">
        <ele>313</ele>
        <time>2022-02-14T11:15:17Z</time>
      </trkpt>
      <trkpt lat="44.35676" lon="1.68706">
        <ele>312</ele>
        <time>2022-02-14T11:16:03Z</time>
      </trkpt>
      <trkpt lat="44.35612" lon="1.68768">
        <ele>312</ele>
        <time>2022-02-14T11:17:47Z</time>
      </trkpt>
      <trkpt lat="44.35563" lon="1.68804">
        <ele>314</ele>
        <time>2022-02-14T11:19:01Z</time>
      </trkpt>
      <trkpt lat="44.35521" lon="1.68848">
        <ele>315</ele>
        <time>2022-02-14T11:20:11Z</time>
      </trkpt>
      <trkpt lat="44.35415" lon="1.6892">
        <ele>316</ele>
        <time>2022-02-14T11:22:48Z</time>
      </trkpt>
      <trkpt lat="44.35402" lon="1.68931">
        <ele>317</ele>
        <time>2022-02-14T11:23:08Z</time>
      </trkpt>
      <trkpt lat="44.3537" lon="1.68952">
        <ele>318</ele>
        <time>2022-02-14T11:23:55Z</time>
      </trkpt>
      <trkpt lat="44.35335" lon="1.68971">
        <ele>320</ele>
        <time>2022-02-14T11:24:45Z</time>
      </trkpt>
      <trkpt lat="44.35295" lon="1.68998">
        <ele>321</ele>
        <time>2022-02-14T11:25:45Z</time>
      </trkpt>
      <trkpt lat="44.35283" lon="1.69009">
        <ele>321</ele>
        <time>2022-02-14T11:26:04Z</time>
      </trkpt>
      <trkpt lat="44.35258" lon="1.69021">
        <ele>321</ele>
        <time>2022-02-14T11:26:39Z</time>
      </trkpt>
      <trkpt lat="44.35254" lon="1.69021">
        <ele>321</ele>
        <time>2022-02-14T11:26:44Z</time>
      </trkpt>
      <trkpt lat="44.35247" lon="1.69015">
        <ele>322</ele>
        <time>2022-02-14T11:26:55Z</time>
      </trkpt>
      <trkpt lat="44.35249" lon="1.69014">
        <ele>322</ele>
        <time>2022-02-14T11:26:58Z</time>
      </trkpt>
      <trkpt lat="44.35245" lon="1.69005">
        <ele>322</ele>
        <time>2022-02-14T11:27:08Z</time>
      </trkpt>
      <trkpt lat="44.35238" lon="1.68864">
        <ele>325</ele>
        <time>2022-02-14T11:29:23Z</time>
      </trkpt>
      <trkpt lat="44.35234" lon="1.68844">
        <ele>325</ele>
        <time>2022-02-14T11:29:43Z</time>
      </trkpt>
      <trkpt lat="44.35233" lon="1.68807">
        <ele>326</ele>
        <time>2022-02-14T11:30:18Z</time>
      </trkpt>
      <trkpt lat="44.35223" lon="1.68719">
        <ele>327</ele>
        <time>2022-02-14T11:31:43Z</time>
      </trkpt>
      <trkpt lat="44.35219" lon="1.686">
        <ele>330</ele>
        <time>2022-02-14T11:33:37Z</time>
      </trkpt>
      <trkpt lat="44.35177" lon="1.686">
        <ele>330</ele>
        <time>2022-02-14T11:34:33Z</time>
      </trkpt>
      <trkpt lat="44.35072" lon="1.6862">
        <ele>330</ele>
        <time>2022-02-14T11:36:55Z</time>
      </trkpt>
      <trkpt lat="44.35022" lon="1.68627">
        <ele>328</ele>
        <time>2022-02-14T11:38:02Z</time>
      </trkpt>
      <trkpt lat="44.34947" lon="1.68632">
        <ele>328</ele>
        <time>2022-02-14T11:39:42Z</time>
      </trkpt>
      <trkpt lat="44.3493" lon="1.68627">
        <ele>328</ele>
        <time>2022-02-14T11:40:05Z</time>
      </trkpt>
      <trkpt lat="44.34882" lon="1.6863">
        <ele>328</ele>
        <time>2022-02-14T11:41:09Z</time>
      </trkpt>
      <trkpt lat="44.3482" lon="1.68622">
        <ele>328</ele>
        <time>2022-02-14T11:42:32Z</time>
      </trkpt>
      <trkpt lat="44.34784" lon="1.68607">
        <ele>328</ele>
        <time>2022-02-14T11:43:22Z</time>
      </trkpt>
      <trkpt lat="44.34672" lon="1.68568">
        <ele>326</ele>
        <time>2022-02-14T11:45:56Z</time>
      </trkpt>
      <trkpt lat="44.34593" lon="1.68528">
        <ele>321</ele>
        <time>2022-02-14T11:47:48Z</time>
      </trkpt>
      <trkpt lat="44.34557" lon="1.68516">
        <ele>319</ele>
        <time>2022-02-14T11:48:38Z</time>
      </trkpt>
      <trkpt lat="44.34457" lon="1.6846">
        <ele>312</ele>
        <time>2022-02-14T11:51:02Z</time>
      </trkpt>
      <trkpt lat="44.34431" lon="1.6845">
        <ele>310</ele>
        <time>2022-02-14T11:51:38Z</time>
      </trkpt>
      <trkpt lat="44.34423" lon="1.68441">
        <ele>309</ele>
        <time>2022-02-14T11:51:51Z</time>
      </trkpt>
      <trkpt lat="44.34416" lon="1.68437">
        <ele>309</ele>
        <time>2022-02-14T11:52:01Z</time>
      </trkpt>
      <trkpt lat="44.3442" lon="1.68436">
        <ele>309</ele>
        <time>2022-02-14T11:52:07Z</time>
      </trkpt>
      <trkpt lat="44.34395" lon="1.6845">
        <ele>308</ele>
        <time>2022-02-14T11:52:43Z</time>
      </trkpt>
      <trkpt lat="44.34385" lon="1.68466">
        <ele>309</ele>
        <time>2022-02-14T11:53:03Z</time>
      </trkpt>
      <trkpt lat="44.3439" lon="1.68457">
        <ele>308</ele>
        <time>2022-02-14T11:53:14Z</time>
      </trkpt>
      <trkpt lat="44.3439" lon="1.6846">
        <ele>309</ele>
        <time>2022-02-14T11:53:17Z</time>
      </trkpt>
      <trkpt lat="44.34394" lon="1.68446">
        <ele>308</ele>
        <time>2022-02-14T11:53:31Z</time>
      </trkpt>
      <trkpt lat="44.34394" lon="1.68429">
        <ele>308</ele>
        <time>2022-02-14T11:53:47Z</time>
      </trkpt>
      <trkpt lat="44.34399" lon="1.68428">
        <ele>308</ele>
        <time>2022-02-14T11:53:54Z</time>
      </trkpt>
      <trkpt lat="44.344" lon="1.68425">
        <ele>308</ele>
        <time>2022-02-14T11:53:57Z</time>
      </trkpt>
      <trkpt lat="44.3441" lon="1.68418">
        <ele>308</ele>
        <time>2022-02-14T11:54:12Z</time>
      </trkpt>
      <trkpt lat="44.34407" lon="1.68421">
        <ele>308</ele>
        <time>2022-02-14T11:54:17Z</time>
      </trkpt>
      <trkpt lat="44.34411" lon="1.68409">
        <ele>308</ele>
        <time>2022-02-14T11:54:30Z</time>
      </trkpt>
      <trkpt lat="44.34404" lon="1.68377">
        <ele>306</ele>
        <time>2022-02-14T11:55:02Z</time>
      </trkpt>
      <trkpt lat="44.34368" lon="1.68354">
        <ele>303</ele>
        <time>2022-02-14T11:55:54Z</time>
      </trkpt>
      <trkpt lat="44.34363" lon="1.6832">
        <ele>302</ele>
        <time>2022-02-14T11:56:28Z</time>
      </trkpt>
      <trkpt lat="44.34349" lon="1.68317">
        <ele>301</ele>
        <time>2022-02-14T11:56:47Z</time>
      </trkpt>
      <trkpt lat="44.34342" lon="1.68309">
        <ele>300</ele>
        <time>2022-02-14T11:56:59Z</time>
      </trkpt>
      <trkpt lat="44.34343" lon="1.68305">
        <ele>300</ele>
        <time>2022-02-14T11:57:03Z</time>
      </trkpt>
      <trkpt lat="44.34318" lon="1.68329">
        <ele>300</ele>
        <time>2022-02-14T11:57:43Z</time>
      </trkpt>
      <trkpt lat="44.34306" lon="1.68331">
        <ele>300</ele>
        <time>2022-02-14T11:57:59Z</time>
      </trkpt>
      <trkpt lat="44.34306" lon="1.68333">
        <ele>300</ele>
        <time>2022-02-14T11:58:01Z</time>
      </trkpt>
      <trkpt lat="44.34289" lon="1.68341">
        <ele>301</ele>
        <time>2022-02-14T11:58:25Z</time>
      </trkpt>
      <trkpt lat="44.3426" lon="1.68365">
        <ele>301</ele>
        <time>2022-02-14T11:59:10Z</time>
      </trkpt>
      <trkpt lat="44.34198" lon="1.68431">
        <ele>300</ele>
        <time>2022-02-14T12:00:54Z</time>
      </trkpt>
      <trkpt lat="44.34149" lon="1.68472">
        <ele>298</ele>
        <time>2022-02-14T12:02:10Z</time>
      </trkpt>
      <trkpt lat="44.3411" lon="1.68512">
        <ele>297</ele>
        <time>2022-02-14T12:03:15Z</time>
      </trkpt>
      <trkpt lat="44.3409" lon="1.68536">
        <ele>297</ele>
        <time>2022-02-14T12:03:50Z</time>
      </trkpt>
      <trkpt lat="44.34054" lon="1.68597">
        <ele>297</ele>
        <time>2022-02-14T12:05:05Z</time>
      </trkpt>
      <trkpt lat="44.34044" lon="1.68606">
        <ele>297</ele>
        <time>2022-02-14T12:05:21Z</time>
      </trkpt>
      <trkpt lat="44.34047" lon="1.68601">
        <ele>297</ele>
        <time>2022-02-14T12:05:28Z</time>
      </trkpt>
      <trkpt lat="44.34045" lon="1.68598">
        <ele>296</ele>
        <time>2022-02-14T12:05:31Z</time>
      </trkpt>
      <trkpt lat="44.34044" lon="1.68604">
        <ele>297</ele>
        <time>2022-02-14T12:05:37Z</time>
      </trkpt>
      <trkpt lat="44.34037" lon="1.68613">
        <ele>297</ele>
        <time>2022-02-14T12:05:50Z</time>
      </trkpt>
      <trkpt lat="44.34005" lon="1.6863">
        <ele>295</ele>
        <time>2022-02-14T12:06:36Z</time>
      </trkpt>
      <trkpt lat="44.33972" lon="1.68642">
        <ele>294</ele>
        <time>2022-02-14T12:07:21Z</time>
      </trkpt>
      <trkpt lat="44.33954" lon="1.68644">
        <ele>293</ele>
        <time>2022-02-14T12:07:45Z</time>
      </trkpt>
      <trkpt lat="44.33931" lon="1.68641">
        <ele>293</ele>
        <time>2022-02-14T12:08:16Z</time>
      </trkpt>
      <trkpt lat="44.33914" lon="1.68643">
        <ele>292</ele>
        <time>2022-02-14T12:08:39Z</time>
      </trkpt>
      <trkpt lat="44.33862" lon="1.68659">
        <ele>290</ele>
        <time>2022-02-14T12:09:50Z</time>
      </trkpt>
      <trkpt lat="44.33839" lon="1.68659">
        <ele>289</ele>
        <time>2022-02-14T12:10:21Z</time>
      </trkpt>
      <trkpt lat="44.33819" lon="1.68654">
        <ele>289</ele>
        <time>2022-02-14T12:10:48Z</time>
      </trkpt>
      <trkpt lat="44.33809" lon="1.68654">
        <ele>289</ele>
        <time>2022-02-14T12:11:01Z</time>
      </trkpt>
      <trkpt lat="44.33773" lon="1.68663">
        <ele>288</ele>
        <time>2022-02-14T12:11:50Z</time>
      </trkpt>
      <trkpt lat="44.33752" lon="1.68671">
        <ele>288</ele>
        <time>2022-02-14T12:12:19Z</time>
      </trkpt>
      <trkpt lat="44.33734" lon="1.68673">
        <ele>288</ele>
        <time>2022-02-14T12:12:43Z</time>
      </trkpt>
      <trkpt lat="44.33717" lon="1.6867">
        <ele>287</ele>
        <time>2022-02-14T12:13:06Z</time>
      </trkpt>
      <trkpt lat="44.33674" lon="1.68671">
        <ele>286</ele>
        <time>2022-02-14T12:14:03Z</time>
      </trkpt>
      <trkpt lat="44.33617" lon="1.68687">
        <ele>284</ele>
        <time>2022-02-14T12:15:21Z</time>
      </trkpt>
      <trkpt lat="44.33598" lon="1.68689">
        <ele>284</ele>
        <time>2022-02-14T12:15:46Z</time>
      </trkpt>
      <trkpt lat="44.33536" lon="1.68673">
        <ele>281</ele>
        <time>2022-02-14T12:17:10Z</time>
      </trkpt>
      <trkpt lat="44.33501" lon="1.68683">
        <ele>281</ele>
        <time>2022-02-14T12:17:58Z</time>
      </trkpt>
      <trkpt lat="44.33495" lon="1.6868">
        <ele>281</ele>
        <time>2022-02-14T12:18:07Z</time>
      </trkpt>
      <trkpt lat="44.33468" lon="1.68616">
        <ele>284</ele>
        <time>2022-02-14T12:19:18Z</time>
      </trkpt>
      <trkpt lat="44.33435" lon="1.68513">
        <ele>290</ele>
        <time>2022-02-14T12:21:05Z</time>
      </trkpt>
      <trkpt lat="44.33427" lon="1.68494">
        <ele>290</ele>
        <time>2022-02-14T12:21:26Z</time>
      </trkpt>
      <trkpt lat="44.33375" lon="1.6843">
        <ele>290</ele>
        <time>2022-02-14T12:22:59Z</time>
      </trkpt>
      <trkpt lat="44.33353" lon="1.68388">
        <ele>290</ele>
        <time>2022-02-14T12:23:48Z</time>
      </trkpt>
      <trkpt lat="44.33347" lon="1.68383">
        <ele>290</ele>
        <time>2022-02-14T12:23:58Z</time>
      </trkpt>
      <trkpt lat="44.33299" lon="1.68394">
        <ele>289</ele>
        <time>2022-02-14T12:25:03Z</time>
      </trkpt>
      <trkpt lat="44.3329" lon="1.68401">
        <ele>289</ele>
        <time>2022-02-14T12:25:16Z</time>
      </trkpt>
      <trkpt lat="44.33247" lon="1.68451">
        <ele>287</ele>
        <time>2022-02-14T12:26:31Z</time>
      </trkpt>
      <trkpt lat="44.33229" lon="1.68465">
        <ele>285</ele>
        <time>2022-02-14T12:26:59Z</time>
      </trkpt>
      <trkpt lat="44.33208" lon="1.68476">
        <ele>283</ele>
        <time>2022-02-14T12:27:28Z</time>
      </trkpt>
      <trkpt lat="44.3319" lon="1.68478">
        <ele>282</ele>
        <time>2022-02-14T12:27:53Z</time>
      </trkpt>
      <trkpt lat="44.33173" lon="1.68468">
        <ele>282</ele>
        <time>2022-02-14T12:28:17Z</time>
      </trkpt>
      <trkpt lat="44.33151" lon="1.68441">
        <ele>283</ele>
        <time>2022-02-14T12:28:56Z</time>
      </trkpt>
      <trkpt lat="44.3314" lon="1.68432">
        <ele>283</ele>
        <time>2022-02-14T12:29:13Z</time>
      </trkpt>
      <trkpt lat="44.33127" lon="1.68426">
        <ele>284</ele>
        <time>2022-02-14T12:29:31Z</time>
      </trkpt>
      <trkpt lat="44.33093" lon="1.68417">
        <ele>284</ele>
        <time>2022-02-14T12:30:18Z</time>
      </trkpt>
      <trkpt lat="44.3306" lon="1.68422">
        <ele>284</ele>
        <time>2022-02-14T12:31:02Z</time>
      </trkpt>
      <trkpt lat="44.33041" lon="1.6842">
        <ele>284</ele>
        <time>2022-02-14T12:31:27Z</time>
      </trkpt>
      <trkpt lat="44.33026" lon="1.68416">
        <ele>285</ele>
        <time>2022-02-14T12:31:48Z</time>
      </trkpt>
      <trkpt lat="44.3299" lon="1.684">
        <ele>287</ele>
        <time>2022-02-14T12:32:38Z</time>
      </trkpt>
      <trkpt lat="44.32939" lon="1.68391">
        <ele>286</ele>
        <time>2022-02-14T12:33:47Z</time>
      </trkpt>
      <trkpt lat="44.32888" lon="1.68367">
        <ele>286</ele>
        <time>2022-02-14T12:34:59Z</time>
      </trkpt>
      <trkpt lat="44.32854" lon="1.68348">
        <ele>285</ele>
        <time>2022-02-14T12:35:47Z</time>
      </trkpt>
      <trkpt lat="44.32843" lon="1.68339">
        <ele>286</ele>
        <time>2022-02-14T12:36:04Z</time>
      </trkpt>
      <trkpt lat="44.32839" lon="1.68326">
        <ele>287</ele>
        <time>2022-02-14T12:36:18Z</time>
      </trkpt>
      <trkpt lat="44.32835" lon="1.68293">
        <ele>288</ele>
        <time>2022-02-14T12:36:50Z</time>
      </trkpt>
      <trkpt lat="44.32843" lon="1.68164">
        <ele>291</ele>
        <time>2022-02-14T12:38:54Z</time>
      </trkpt>
      <trkpt lat="44.32852" lon="1.68113">
        <ele>288</ele>
        <time>2022-02-14T12:39:44Z</time>
      </trkpt>
      <trkpt lat="44.32866" lon="1.68067">
        <ele>287</ele>
        <time>2022-02-14T12:40:31Z</time>
      </trkpt>
      <trkpt lat="44.32864" lon="1.68065">
        <ele>287</ele>
        <time>2022-02-14T12:40:35Z</time>
      </trkpt>
      <trkpt lat="44.32865" lon="1.68053">
        <ele>286</ele>
        <time>2022-02-14T12:40:46Z</time>
      </trkpt>
      <trkpt lat="44.32873" lon="1.68029">
        <ele>286</ele>
        <time>2022-02-14T12:41:11Z</time>
      </trkpt>
      <trkpt lat="44.32877" lon="1.67978">
        <ele>284</ele>
        <time>2022-02-14T12:42:00Z</time>
      </trkpt>
      <trkpt lat="44.32887" lon="1.67925">
        <ele>283</ele>
        <time>2022-02-14T12:42:53Z</time>
      </trkpt>
      <trkpt lat="44.32914" lon="1.67855">
        <ele>283</ele>
        <time>2022-02-14T12:44:09Z</time>
      </trkpt>
      <trkpt lat="44.33009" lon="1.67678">
        <ele>287</ele>
        <time>2022-02-14T12:47:40Z</time>
      </trkpt>
      <trkpt lat="44.33043" lon="1.67623">
        <ele>288</ele>
        <time>2022-02-14T12:48:49Z</time>
      </trkpt>
      <trkpt lat="44.33166" lon="1.67478">
        <ele>290</ele>
        <time>2022-02-14T12:52:24Z</time>
      </trkpt>
      <trkpt lat="44.33193" lon="1.67438">
        <ele>292</ele>
        <time>2022-02-14T12:53:17Z</time>
      </trkpt>
      <trkpt lat="44.33219" lon="1.67407">
        <ele>293</ele>
        <time>2022-02-14T12:54:02Z</time>
      </trkpt>
      <trkpt lat="44.33251" lon="1.67378">
        <ele>294</ele>
        <time>2022-02-14T12:54:53Z</time>
      </trkpt>
      <trkpt lat="44.33278" lon="1.67358">
        <ele>296</ele>
        <time>2022-02-14T12:55:34Z</time>
      </trkpt>
      <trkpt lat="44.33357" lon="1.67282">
        <ele>299</ele>
        <time>2022-02-14T12:57:42Z</time>
      </trkpt>
      <trkpt lat="44.33389" lon="1.67242">
        <ele>299</ele>
        <time>2022-02-14T12:58:39Z</time>
      </trkpt>
      <trkpt lat="44.33431" lon="1.67202">
        <ele>300</ele>
        <time>2022-02-14T12:59:47Z</time>
      </trkpt>
      <trkpt lat="44.33472" lon="1.67152">
        <ele>303</ele>
        <time>2022-02-14T13:00:59Z</time>
      </trkpt>
      <trkpt lat="44.33509" lon="1.67113">
        <ele>304</ele>
        <time>2022-02-14T13:02:01Z</time>
      </trkpt>
      <trkpt lat="44.33556" lon="1.67046">
        <ele>305</ele>
        <time>2022-02-14T13:03:31Z</time>
      </trkpt>
      <trkpt lat="44.33568" lon="1.6704">
        <ele>305</ele>
        <time>2022-02-14T13:03:48Z</time>
      </trkpt>
      <trkpt lat="44.33624" lon="1.66961">
        <ele>308</ele>
        <time>2022-02-14T13:05:34Z</time>
      </trkpt>
      <trkpt lat="44.33641" lon="1.66944">
        <ele>309</ele>
        <time>2022-02-14T13:06:02Z</time>
      </trkpt>
      <trkpt lat="44.3366" lon="1.66915">
        <ele>309</ele>
        <time>2022-02-14T13:06:39Z</time>
      </trkpt>
      <trkpt lat="44.33669" lon="1.66907">
        <ele>310</ele>
        <time>2022-02-14T13:06:54Z</time>
      </trkpt>
      <trkpt lat="44.33717" lon="1.66813">
        <ele>315</ele>
        <time>2022-02-14T13:08:44Z</time>
      </trkpt>
      <trkpt lat="44.33775" lon="1.66742">
        <ele>318</ele>
        <time>2022-02-14T13:10:27Z</time>
      </trkpt>
      <trkpt lat="44.33802" lon="1.66703">
        <ele>319</ele>
        <time>2022-02-14T13:11:19Z</time>
      </trkpt>
      <trkpt lat="44.33813" lon="1.66681">
        <ele>319</ele>
        <time>2022-02-14T13:11:44Z</time>
      </trkpt>
      <trkpt lat="44.33828" lon="1.66635">
        <ele>320</ele>
        <time>2022-02-14T13:12:32Z</time>
      </trkpt>
      <trkpt lat="44.33824" lon="1.66611">
        <ele>321</ele>
        <time>2022-02-14T13:12:56Z</time>
      </trkpt>
      <trkpt lat="44.33807" lon="1.66564">
        <ele>322</ele>
        <time>2022-02-14T13:13:46Z</time>
      </trkpt>
      <trkpt lat="44.33815" lon="1.66543">
        <ele>322</ele>
        <time>2022-02-14T13:14:09Z</time>
      </trkpt>
      <trkpt lat="44.3384" lon="1.66513">
        <ele>321</ele>
        <time>2022-02-14T13:14:53Z</time>
      </trkpt>
      <trkpt lat="44.33879" lon="1.66533">
        <ele>321</ele>
        <time>2022-02-14T13:15:48Z</time>
      </trkpt>
      <trkpt lat="44.33906" lon="1.66541">
        <ele>321</ele>
        <time>2022-02-14T13:16:25Z</time>
      </trkpt>
      <trkpt lat="44.33925" lon="1.66543">
        <ele>321</ele>
        <time>2022-02-14T13:16:51Z</time>
      </trkpt>
      <trkpt lat="44.3394" lon="1.66556">
        <ele>321</ele>
        <time>2022-02-14T13:17:14Z</time>
      </trkpt>
      <trkpt lat="44.33945" lon="1.66616">
        <ele>321</ele>
        <time>2022-02-14T13:18:12Z</time>
      </trkpt>
      <trkpt lat="44.33951" lon="1.66644">
        <ele>321</ele>
        <time>2022-02-14T13:18:40Z</time>
      </trkpt>
      <trkpt lat="44.33954" lon="1.66676">
        <ele>321</ele>
        <time>2022-02-14T13:19:11Z</time>
      </trkpt>
      <trkpt lat="44.33961" lon="1.66706">
        <ele>321</ele>
        <time>2022-02-14T13:19:41Z</time>
      </trkpt>
      <trkpt lat="44.33976" lon="1.66733">
        <ele>322</ele>
        <time>2022-02-14T13:20:13Z</time>
      </trkpt>
      <trkpt lat="44.3399" lon="1.66769">
        <ele>322</ele>
        <time>2022-02-14T13:20:52Z</time>
      </trkpt>
      <trkpt lat="44.34018" lon="1.66814">
        <ele>322</ele>
        <time>2022-02-14T13:21:49Z</time>
      </trkpt>
      <trkpt lat="44.34027" lon="1.66846">
        <ele>322</ele>
        <time>2022-02-14T13:22:22Z</time>
      </trkpt>
      <trkpt lat="44.3403" lon="1.66896">
        <ele>324</ele>
        <time>2022-02-14T13:23:10Z</time>
      </trkpt>
      <trkpt lat="44.34036" lon="1.66924">
        <ele>324</ele>
        <time>2022-02-14T13:23:38Z</time>
      </trkpt>
      <trkpt lat="44.34057" lon="1.6699">
        <ele>324</ele>
        <time>2022-02-14T13:24:47Z</time>
      </trkpt>
      <trkpt lat="44.34054" lon="1.67011">
        <ele>324</ele>
        <time>2022-02-14T13:25:07Z</time>
      </trkpt>
      <trkpt lat="44.34043" lon="1.67043">
        <ele>325</ele>
        <time>2022-02-14T13:25:41Z</time>
      </trkpt>
      <trkpt lat="44.34056" lon="1.67054">
        <ele>324</ele>
        <time>2022-02-14T13:26:01Z</time>
      </trkpt>
      <trkpt lat="44.34077" lon="1.67056">
        <ele>324</ele>
        <time>2022-02-14T13:26:30Z</time>
      </trkpt>
      <trkpt lat="44.34103" lon="1.67073">
        <ele>324</ele>
        <time>2022-02-14T13:27:08Z</time>
      </trkpt>
      <trkpt lat="44.34132" lon="1.67085">
        <ele>323</ele>
        <time>2022-02-14T13:27:48Z</time>
      </trkpt>
      <trkpt lat="44.34153" lon="1.67089">
        <ele>323</ele>
        <time>2022-02-14T13:28:17Z</time>
      </trkpt>
      <trkpt lat="44.34164" lon="1.67073">
        <ele>323</ele>
        <time>2022-02-14T13:28:38Z</time>
      </trkpt>
      <trkpt lat="44.34178" lon="1.67045">
        <ele>322</ele>
        <time>2022-02-14T13:29:10Z</time>
      </trkpt>
      <trkpt lat="44.34207" lon="1.67044">
        <ele>322</ele>
        <time>2022-02-14T13:29:49Z</time>
      </trkpt>
      <trkpt lat="44.3425" lon="1.67076">
        <ele>323</ele>
        <time>2022-02-14T13:30:54Z</time>
      </trkpt>
      <trkpt lat="44.34289" lon="1.67124">
        <ele>321</ele>
        <time>2022-02-14T13:32:03Z</time>
      </trkpt>
      <trkpt lat="44.34312" lon="1.67133">
        <ele>321</ele>
        <time>2022-02-14T13:32:35Z</time>
      </trkpt>
      <trkpt lat="44.3437" lon="1.67146">
        <ele>322</ele>
        <time>2022-02-14T13:33:54Z</time>
      </trkpt>
      <trkpt lat="44.34436" lon="1.67165">
        <ele>324</ele>
        <time>2022-02-14T13:35:24Z</time>
      </trkpt>
      <trkpt lat="44.34477" lon="1.6717">
        <ele>323</ele>
        <time>2022-02-14T13:36:18Z</time>
      </trkpt>
      <trkpt lat="44.34538" lon="1.67182">
        <ele>322</ele>
        <time>2022-02-14T13:37:41Z</time>
      </trkpt>
      <trkpt lat="44.34558" lon="1.67189">
        <ele>321</ele>
        <time>2022-02-14T13:38:08Z</time>
      </trkpt>
      <trkpt lat="44.34665" lon="1.67243">
        <ele>317</ele>
        <time>2022-02-14T13:40:40Z</time>
      </trkpt>
      <trkpt lat="44.34677" lon="1.67245">
        <ele>317</ele>
        <time>2022-02-14T13:40:56Z</time>
      </trkpt>
      <trkpt lat="44.34708" lon="1.67266">
        <ele>318</ele>
        <time>2022-02-14T13:41:42Z</time>
      </trkpt>
      <trkpt lat="44.34729" lon="1.67268">
        <ele>319</ele>
        <time>2022-02-14T13:42:10Z</time>
      </trkpt>
      <trkpt lat="44.34756" lon="1.67262">
        <ele>319</ele>
        <time>2022-02-14T13:42:47Z</time>
      </trkpt>
      <trkpt lat="44.34776" lon="1.67254">
        <ele>319</ele>
        <time>2022-02-14T13:43:14Z</time>
      </trkpt>
      <trkpt lat="44.34795" lon="1.67235">
        <ele>319</ele>
        <time>2022-02-14T13:43:46Z</time>
      </trkpt>
      <trkpt lat="44.34814" lon="1.6723">
        <ele>319</ele>
        <time>2022-02-14T13:44:11Z</time>
      </trkpt>
      <trkpt lat="44.34854" lon="1.67241">
        <ele>319</ele>
        <time>2022-02-14T13:45:06Z</time>
      </trkpt>
      <trkpt lat="44.3489" lon="1.67254">
        <ele>320</ele>
        <time>2022-02-14T13:45:55Z</time>
      </trkpt>
      <trkpt lat="44.34922" lon="1.67274">
        <ele>321</ele>
        <time>2022-02-14T13:46:42Z</time>
      </trkpt>
      <trkpt lat="44.34944" lon="1.6728">
        <ele>321</ele>
        <time>2022-02-14T13:47:12Z</time>
      </trkpt>
      <trkpt lat="44.34948" lon="1.67278">
        <ele>321</ele>
        <time>2022-02-14T13:47:18Z</time>
      </trkpt>
      <trkpt lat="44.3497" lon="1.67221">
        <ele>321</ele>
        <time>2022-02-14T13:48:20Z</time>
      </trkpt>
      <trkpt lat="44.34997" lon="1.67137">
        <ele>320</ele>
        <time>2022-02-14T13:49:47Z</time>
      </trkpt>
      <trkpt lat="44.35023" lon="1.6707">
        <ele>318</ele>
        <time>2022-02-14T13:51:00Z</time>
      </trkpt>
    </trkseg>
  </trk>
</gpx>